Flight Track Log - Related Links

Times and Time Zones

All times are in EDT time to prevent confusion due to time zone crossing. See the FSR411 flight status page for this flight to view local times or setup timezone preferences in your user account.

Time Position Orientation Groundspeed Altitude Reporting Facility
EDT Latitude Longitude Course Direction KTS MPH feet Rate Location/Type
Sun 01:06:45 PM 41.8000 -87.7333 90° East 178 205 1,600  Level Chicago TRACON
Sun 01:07:46 PM 41.8000 -87.6500 90° East 258 297 4,000 2,256 Climbing Chicago TRACON
Sun 01:08:42 PM 41.7442 -87.6158 155° Southeast 253 291 6,000 1,282 Climbing Chicago Center
Sun 01:09:43 PM 41.6850 -87.6664 213° Southwest 252 290 6,500 976 Climbing Chicago Center
Sun 01:10:45 PM 41.6319 -87.7367 225° Southwest 250 288 8,000 1,500 Climbing Chicago Center
Sun 01:11:47 PM 41.5764 -87.8086 224° Southwest 270 311 9,600 968 Climbing Chicago Center
Sun 01:12:49 PM 41.5200 -87.8825 224° Southwest 281 323 10,000 244 Climbing Chicago Center
Sun 01:13:50 PM 41.4550 -87.9672 224° Southwest 324 373 10,100 49 Climbing Chicago Center
Sun 01:14:52 PM 41.3681 -88.0389 212° Southwest 350 403 10,100  Level Chicago Center
Sun 01:15:54 PM 41.2714 -88.0569 188° South 350 403 10,100  Level Chicago Center
Sun 01:16:55 PM 41.1789 -88.0719 187° South 337 388 10,100  Level Chicago Center
Sun 01:17:57 PM 41.0814 -88.0892 188° South 331 381 10,100 -97 Level Chicago Center
Sun 01:18:59 PM 40.9900 -88.1067 188° South 331 381 9,900 -98 Descending Chicago Center
Sun 01:20:00 PM 40.8983 -88.1236 188° South 332 382 9,900  Level Chicago Center
Sun 01:21:02 PM 40.7997 -88.1408 188° South 331 381 9,900  Level Chicago Center
Sun 01:22:04 PM 40.7225 -88.1553 188° South 328 377 9,900 -244 Level Chicago Center
Sun 01:23:05 PM 40.6308 -88.1719 188° South 275 316 9,400 -976 Descending Chicago Center
Sun 01:24:07 PM 40.5603 -88.1839 187° South 256 295 7,900 -1,500 Descending Chicago Center
Sun 01:25:09 PM 40.4922 -88.1958 188° South 253 291 6,300 -1,512 Descending Chicago Center
Sun 01:26:10 PM 40.4228 -88.2086 188° South 252 290 4,800 -1,463 Descending Chicago Center
Sun 01:27:12 PM 40.3525 -88.2203 187° South 252 290 3,300 -919 Descending Chicago Center
Sun 01:28:14 PM 40.2853 -88.2342 189° South 252 290 2,900 -387 Descending Chicago Center
Sun 01:30:00 PM 40.1504 -88.2533 189° South  Level FlightAware Approximate
Sun 01:37:00 PM 40.0333 -88.2667 180° South  Level FlightAware Approximate
Sun 01:38:00 PM 40.0388 -88.2778 180° South  Level Estimated
Sun 01:39:00 PM 40.0388 -88.2778 180° South  Level Estimated
Sun 01:40:00 PM 40.0388 -88.2778 180° South  Level Estimated
Sun 01:41:00 PM 40.0388 -88.2778 180° South  Level Estimated
Sun 01:42:00 PM 40.0388 -88.2778 180° South  Level Estimated

Login

Don't have an account? Register now (free) for customized features, flight alerts, and more!